sensor_id;sensor_type;location;lat;lon;timestamp;pressure;altitude;pressure_sealevel;temperature;humidity
63665;BME280;49820;33.966;73.390;2023-02-27T02:32:05;79289.22;;;6.17;100.00
63665;BME280;49820;33.966;73.390;2023-02-27T02:37:52;79292.31;;;7.11;91.66
63665;BME280;49820;33.966;73.390;2023-02-27T02:44:03;79295.00;;;8.17;88.36
63665;BME280;49820;33.966;73.390;2023-02-27T02:46:14;79298.03;;;8.56;83.51
63665;BME280;49820;33.966;73.390;2023-02-27T02:49:04;79299.06;;;8.87;80.94
63665;BME280;49820;33.966;73.390;2023-02-27T02:57:43;79295.59;;;9.62;75.24
63665;BME280;49820;33.966;73.390;2023-02-27T03:00:20;79307.16;;;9.98;74.21
63665;BME280;49820;33.966;73.390;2023-02-27T03:02:55;79296.94;;;9.63;64.44
63665;BME280;49820;33.966;73.390;2023-02-27T03:05:31;79314.13;;;10.27;70.37
63665;BME280;49820;33.966;73.390;2023-02-27T03:08:09;79316.81;;;10.73;67.54
63665;BME280;49820;33.966;73.390;2023-02-27T03:10:53;79316.59;;;10.87;65.10
63665;BME280;49820;33.966;73.390;2023-02-27T03:13:55;79324.13;;;11.17;65.06
63665;BME280;49820;33.966;73.390;2023-02-27T03:16:40;79314.72;;;11.59;65.88
63665;BME280;49820;33.966;73.390;2023-02-27T03:19:20;79326.13;;;11.95;64.49
63665;BME280;49820;33.966;73.390;2023-02-27T03:24:42;79317.75;;;12.13;61.29
63665;BME280;49820;33.966;73.390;2023-02-27T03:27:16;79296.38;;;12.09;63.71
63665;BME280;49820;33.966;73.390;2023-02-27T03:30:07;79331.31;;;12.38;59.63
63665;BME280;49820;33.966;73.390;2023-02-27T03:35:27;79338.47;;;12.80;60.71
63665;BME280;49820;33.966;73.390;2023-02-27T03:41:14;79328.97;;;12.85;60.30
63665;BME280;49820;33.966;73.390;2023-02-27T03:46:39;79318.44;;;13.06;59.64
63665;BME280;49820;33.966;73.390;2023-02-27T03:49:09;79334.34;;;13.16;59.59
63665;BME280;49820;33.966;73.390;2023-02-27T03:51:39;79322.72;;;13.26;59.71
63665;BME280;49820;33.966;73.390;2023-02-27T03:59:15;79350.53;;;13.97;56.67
63665;BME280;49820;33.966;73.390;2023-02-27T04:01:50;79347.00;;;13.78;56.63
63665;BME280;49820;33.966;73.390;2023-02-27T04:04:21;79346.66;;;14.19;56.80
63665;BME280;49820;33.966;73.390;2023-02-27T04:07:45;79344.69;;;13.88;56.31
63665;BME280;49820;33.966;73.390;2023-02-27T04:24:26;79348.41;;;13.74;56.08
63665;BME280;49820;33.966;73.390;2023-02-27T04:30:15;79355.72;;;13.49;57.96
63665;BME280;49820;33.966;73.390;2023-02-27T04:32:59;79348.69;;;13.62;58.24
63665;BME280;49820;33.966;73.390;2023-02-27T04:35:44;79339.28;;;13.34;59.26
63665;BME280;49820;33.966;73.390;2023-02-27T04:38:53;79360.94;;;13.55;60.08
63665;BME280;49820;33.966;73.390;2023-02-27T04:41:29;79361.19;;;13.45;59.60
63665;BME280;49820;33.966;73.390;2023-02-27T04:44:03;79351.06;;;13.19;58.56
63665;BME280;49820;33.966;73.390;2023-02-27T04:46:36;79354.69;;;13.36;60.61
63665;BME280;49820;33.966;73.390;2023-02-27T04:49:25;79360.34;;;12.91;59.92
63665;BME280;49820;33.966;73.390;2023-02-27T04:52:10;79358.25;;;12.95;60.55
63665;BME280;49820;33.966;73.390;2023-02-27T04:55:10;79359.69;;;12.90;56.31
63665;BME280;49820;33.966;73.390;2023-02-27T04:57:47;79343.75;;;12.51;61.35
63665;BME280;49820;33.966;73.390;2023-02-27T05:00:20;79348.06;;;12.69;60.91
63665;BME280;49820;33.966;73.390;2023-02-27T05:03:18;79366.69;;;13.08;55.10
63665;BME280;49820;33.966;73.390;2023-02-27T05:05:53;79367.94;;;13.13;60.46
63665;BME280;49820;33.966;73.390;2023-02-27T05:17:09;79368.09;;;13.36;57.59
63665;BME280;49820;33.966;73.390;2023-02-27T05:19:43;79364.81;;;13.33;59.28
63665;BME280;49820;33.966;73.390;2023-02-27T05:27:51;79375.16;;;13.50;58.01
63665;BME280;49820;33.966;73.390;2023-02-27T05:30:40;79346.19;;;13.25;56.88
63665;BME280;49820;33.966;73.390;2023-02-27T05:33:37;79377.22;;;13.47;56.45
63665;BME280;49820;33.966;73.390;2023-02-27T05:36:19;79378.00;;;13.72;52.78
63665;BME280;49820;33.966;73.390;2023-02-27T05:38:55;79372.44;;;13.52;49.75
63665;BME280;49820;33.966;73.390;2023-02-27T05:41:43;79370.63;;;14.00;55.31
63665;BME280;49820;33.966;73.390;2023-02-27T05:44:27;79368.91;;;14.42;53.46
63665;BME280;49820;33.966;73.390;2023-02-27T05:47:19;79374.88;;;14.69;54.61
63665;BME280;49820;33.966;73.390;2023-02-27T05:50:08;79369.19;;;15.29;52.48
63665;BME280;49820;33.966;73.390;2023-02-27T05:52:42;79380.63;;;15.75;51.83
63665;BME280;49820;33.966;73.390;2023-02-27T05:55:54;79383.22;;;16.44;51.19
63665;BME280;49820;33.966;73.390;2023-02-27T05:58:41;79382.22;;;16.32;45.64
63665;BME280;49820;33.966;73.390;2023-02-27T06:01:12;79365.19;;;16.59;46.40
63665;BME280;49820;33.966;73.390;2023-02-27T06:03:42;79372.06;;;17.53;48.24
63665;BME280;49820;33.966;73.390;2023-02-27T06:06:15;79363.25;;;17.74;47.59
63665;BME280;49820;33.966;73.390;2023-02-27T06:08:45;79374.31;;;18.39;45.28
63665;BME280;49820;33.966;73.390;2023-02-27T06:11:15;79355.81;;;18.10;42.60
63665;BME280;49820;33.966;73.390;2023-02-27T06:13:45;79367.16;;;18.83;41.36
63665;BME280;49820;33.966;73.390;2023-02-27T06:16:15;79362.88;;;19.22;42.35
63665;BME280;49820;33.966;73.390;2023-02-27T06:18:44;79348.25;;;19.31;41.55
63665;BME280;49820;33.966;73.390;2023-02-27T06:21:13;79360.31;;;19.83;41.41
63665;BME280;49820;33.966;73.390;2023-02-27T06:23:44;79360.00;;;19.09;37.07
63665;BME280;49820;33.966;73.390;2023-02-27T06:26:14;79365.03;;;20.74;43.10
63665;BME280;49820;33.966;73.390;2023-02-27T06:28:43;79355.09;;;20.83;45.25
63665;BME280;49820;33.966;73.390;2023-02-27T06:31:12;79349.00;;;20.53;40.27
63665;BME280;49820;33.966;73.390;2023-02-27T06:33:41;79369.66;;;21.20;40.13
63665;BME280;49820;33.966;73.390;2023-02-27T06:36:10;79352.75;;;21.47;37.88
63665;BME280;49820;33.966;73.390;2023-02-27T06:38:39;79349.50;;;21.84;35.45
63665;BME280;49820;33.966;73.390;2023-02-27T06:41:09;79344.72;;;21.57;40.43
63665;BME280;49820;33.966;73.390;2023-02-27T06:43:38;79350.03;;;22.01;35.05
63665;BME280;49820;33.966;73.390;2023-02-27T06:46:07;79351.72;;;22.34;36.25
63665;BME280;49820;33.966;73.390;2023-02-27T06:48:37;79332.44;;;21.86;38.46
63665;BME280;49820;33.966;73.390;2023-02-27T06:51:06;79333.72;;;21.47;39.33
63665;BME280;49820;33.966;73.390;2023-02-27T06:53:35;79345.34;;;21.45;32.05
63665;BME280;49820;33.966;73.390;2023-02-27T06:56:05;79325.69;;;21.57;33.28
63665;BME280;49820;33.966;73.390;2023-02-27T06:58:34;79331.53;;;21.07;35.02
63665;BME280;49820;33.966;73.390;2023-02-27T07:01:05;79349.69;;;19.93;36.42
63665;BME280;49820;33.966;73.390;2023-02-27T07:03:34;79341.34;;;19.97;36.55
63665;BME280;49820;33.966;73.390;2023-02-27T07:06:03;79334.38;;;20.76;42.43
63665;BME280;49820;33.966;73.390;2023-02-27T07:08:32;79308.34;;;19.93;38.16
63665;BME280;49820;33.966;73.390;2023-02-27T07:11:03;79333.91;;;19.18;36.03
63665;BME280;49820;33.966;73.390;2023-02-27T07:13:33;79315.41;;;19.23;37.81
63665;BME280;49820;33.966;73.390;2023-02-27T07:16:02;79311.75;;;20.37;35.15
63665;BME280;49820;33.966;73.390;2023-02-27T07:18:33;79340.09;;;20.84;37.71
63665;BME280;49820;33.966;73.390;2023-02-27T07:21:02;79324.28;;;20.74;34.44
63665;BME280;49820;33.966;73.390;2023-02-27T07:23:31;79319.00;;;20.11;36.51
63665;BME280;49820;33.966;73.390;2023-02-27T07:26:00;79312.13;;;20.59;34.37
63665;BME280;49820;33.966;73.390;2023-02-27T07:28:29;79300.78;;;20.69;36.02
63665;BME280;49820;33.966;73.390;2023-02-27T07:30:58;79303.34;;;20.58;33.74
63665;BME280;49820;33.966;73.390;2023-02-27T07:33:28;79286.94;;;20.01;35.84
63665;BME280;49820;33.966;73.390;2023-02-27T07:35:59;79298.06;;;21.25;35.63
63665;BME280;49820;33.966;73.390;2023-02-27T07:38:29;79304.34;;;19.60;36.75
63665;BME280;49820;33.966;73.390;2023-02-27T07:40:59;79299.31;;;18.87;38.43
63665;BME280;49820;33.966;73.390;2023-02-27T07:43:28;79273.31;;;18.27;38.88
63665;BME280;49820;33.966;73.390;2023-02-27T07:45:57;79288.88;;;20.76;34.41
63665;BME280;49820;33.966;73.390;2023-02-27T07:48:27;79297.31;;;21.27;39.97
63665;BME280;49820;33.966;73.390;2023-02-27T07:50:57;79291.13;;;20.13;36.08
63665;BME280;49820;33.966;73.390;2023-02-27T07:53:27;79271.53;;;19.52;35.05
63665;BME280;49820;33.966;73.390;2023-02-27T07:55:56;79259.19;;;21.14;38.84
63665;BME280;49820;33.966;73.390;2023-02-27T07:58:25;79273.28;;;21.04;36.39
63665;BME280;49820;33.966;73.390;2023-02-27T08:00:54;79254.59;;;22.56;33.40
63665;BME280;49820;33.966;73.390;2023-02-27T08:03:23;79252.53;;;21.11;31.44
63665;BME280;49820;33.966;73.390;2023-02-27T08:05:54;79265.28;;;21.15;30.42
63665;BME280;49820;33.966;73.390;2023-02-27T08:08:22;79270.66;;;21.57;34.65
63665;BME280;49820;33.966;73.390;2023-02-27T08:10:52;79268.19;;;20.69;30.47
63665;BME280;49820;33.966;73.390;2023-02-27T08:13:23;79255.50;;;20.21;29.87
63665;BME280;49820;33.966;73.390;2023-02-27T08:16:12;79253.25;;;19.81;30.62
63665;BME280;49820;33.966;73.390;2023-02-27T08:18:41;79246.13;;;17.63;32.07
63665;BME280;49820;33.966;73.390;2023-02-27T08:21:11;79266.13;;;17.86;33.68
63665;BME280;49820;33.966;73.390;2023-02-27T08:23:40;79256.44;;;17.39;33.68
63665;BME280;49820;33.966;73.390;2023-02-27T08:26:09;79242.91;;;16.06;35.01
63665;BME280;49820;33.966;73.390;2023-02-27T08:28:38;79243.13;;;16.39;33.65
63665;BME280;49820;33.966;73.390;2023-02-27T08:31:08;79233.88;;;16.93;37.95
63665;BME280;49820;33.966;73.390;2023-02-27T08:33:37;79244.59;;;15.97;35.57
63665;BME280;49820;33.966;73.390;2023-02-27T08:36:06;79233.63;;;16.22;36.83
63665;BME280;49820;33.966;73.390;2023-02-27T08:38:35;79234.34;;;16.78;43.20
63665;BME280;49820;33.966;73.390;2023-02-27T08:41:05;79237.66;;;15.81;38.12
63665;BME280;49820;33.966;73.390;2023-02-27T08:43:34;79239.28;;;15.51;36.28
63665;BME280;49820;33.966;73.390;2023-02-27T08:46:03;79226.81;;;14.98;34.96
63665;BME280;49820;33.966;73.390;2023-02-27T08:48:32;79197.09;;;14.09;38.58
63665;BME280;49820;33.966;73.390;2023-02-27T08:51:01;79214.16;;;13.99;37.36
63665;BME280;49820;33.966;73.390;2023-02-27T08:53:30;79213.03;;;13.65;40.44
63665;BME280;49820;33.966;73.390;2023-02-27T08:55:59;79224.66;;;13.83;39.63
63665;BME280;49820;33.966;73.390;2023-02-27T08:58:30;79227.81;;;14.64;39.97
63665;BME280;49820;33.966;73.390;2023-02-27T09:00:59;79226.69;;;13.82;40.24
63665;BME280;49820;33.966;73.390;2023-02-27T09:03:28;79238.72;;;14.10;39.45
63665;BME280;49820;33.966;73.390;2023-02-27T09:05:57;79240.53;;;15.11;39.92
63665;BME280;49820;33.966;73.390;2023-02-27T09:08:26;79228.06;;;14.56;39.70
63665;BME280;49820;33.966;73.390;2023-02-27T09:10:57;79234.00;;;13.86;40.11
63665;BME280;49820;33.966;73.390;2023-02-27T09:13:26;79214.47;;;13.87;45.96
63665;BME280;49820;33.966;73.390;2023-02-27T09:15:56;79221.50;;;14.01;42.90
63665;BME280;49820;33.966;73.390;2023-02-27T09:18:25;79224.53;;;14.36;41.09
63665;BME280;49820;33.966;73.390;2023-02-27T09:20:54;79210.94;;;15.11;42.58
63665;BME280;49820;33.966;73.390;2023-02-27T09:23:24;79188.44;;;15.83;40.07
63665;BME280;49820;33.966;73.390;2023-02-27T09:25:53;79199.94;;;14.75;43.71
63665;BME280;49820;33.966;73.390;2023-02-27T09:28:22;79204.75;;;14.23;43.31
63665;BME280;49820;33.966;73.390;2023-02-27T09:30:51;79210.06;;;15.39;44.31
63665;BME280;49820;33.966;73.390;2023-02-27T09:33:20;79187.34;;;14.45;45.33
63665;BME280;49820;33.966;73.390;2023-02-27T09:35:49;79196.09;;;14.45;44.67
63665;BME280;49820;33.966;73.390;2023-02-27T09:38:18;79195.69;;;15.88;41.44
63665;BME280;49820;33.966;73.390;2023-02-27T09:40:49;79167.44;;;17.19;41.11
63665;BME280;49820;33.966;73.390;2023-02-27T09:43:28;79197.47;;;17.27;40.15
63665;BME280;49820;33.966;73.390;2023-02-27T09:45:59;79169.59;;;16.97;39.03
63665;BME280;49820;33.966;73.390;2023-02-27T09:48:38;79185.00;;;16.63;38.27
63665;BME280;49820;33.966;73.390;2023-02-27T09:51:10;79161.72;;;17.27;37.41
63665;BME280;49820;33.966;73.390;2023-02-27T09:53:45;79175.16;;;17.45;37.34
63665;BME280;49820;33.966;73.390;2023-02-27T09:56:28;79190.53;;;17.32;37.83
63665;BME280;49820;33.966;73.390;2023-02-27T10:01:50;79174.09;;;18.72;36.07
63665;BME280;49820;33.966;73.390;2023-02-27T10:12:34;79185.13;;;18.01;34.41
63665;BME280;49820;33.966;73.390;2023-02-27T10:15:32;79180.09;;;18.89;36.01
63665;BME280;49820;33.966;73.390;2023-02-27T10:18:11;79174.25;;;19.14;31.32
63665;BME280;49820;33.966;73.390;2023-02-27T10:20:57;79164.88;;;19.28;28.46
63665;BME280;49820;33.966;73.390;2023-02-27T10:26:42;79146.50;;;18.84;28.13
63665;BME280;49820;33.966;73.390;2023-02-27T10:32:27;79176.94;;;18.20;27.56
63665;BME280;49820;33.966;73.390;2023-02-27T10:37:45;79175.78;;;18.32;29.07
63665;BME280;49820;33.966;73.390;2023-02-27T10:40:16;79167.34;;;18.40;30.54
63665;BME280;49820;33.966;73.390;2023-02-27T10:42:48;79150.53;;;18.37;31.14
63665;BME280;49820;33.966;73.390;2023-02-27T10:45:19;79159.72;;;18.11;26.38
63665;BME280;49820;33.966;73.390;2023-02-27T10:47:47;79169.34;;;18.08;30.22
63665;BME280;49820;33.966;73.390;2023-02-27T10:50:36;79166.78;;;18.04;26.98
63665;BME280;49820;33.966;73.390;2023-02-27T10:53:26;79169.41;;;18.22;30.10
63665;BME280;49820;33.966;73.390;2023-02-27T10:56:03;79171.84;;;17.62;29.01
63665;BME280;49820;33.966;73.390;2023-02-27T10:58:34;79150.91;;;17.79;29.57
63665;BME280;49820;33.966;73.390;2023-02-27T11:01:08;79144.84;;;17.09;30.08
63665;BME280;49820;33.966;73.390;2023-02-27T11:03:40;79161.97;;;17.37;30.10
63665;BME280;49820;33.966;73.390;2023-02-27T11:06:25;79171.28;;;17.59;32.73
63665;BME280;49820;33.966;73.390;2023-02-27T11:09:22;79172.59;;;17.25;34.54
63665;BME280;49820;33.966;73.390;2023-02-27T11:11:51;79178.97;;;16.23;32.87
63665;BME280;49820;33.966;73.390;2023-02-27T11:14:30;79176.47;;;15.98;38.30
63665;BME280;49820;33.966;73.390;2023-02-27T11:17:01;79163.88;;;15.51;32.27
63665;BME280;49820;33.966;73.390;2023-02-27T11:19:34;79160.22;;;15.19;35.75
63665;BME280;49820;33.966;73.390;2023-02-27T11:22:18;79174.81;;;15.47;30.12
63665;BME280;49820;33.966;73.390;2023-02-27T11:24:48;79170.91;;;14.78;33.71
63665;BME280;49820;33.966;73.390;2023-02-27T11:30:00;79160.03;;;15.46;37.01
63665;BME280;49820;33.966;73.390;2023-02-27T11:32:44;79163.13;;;15.55;31.15
63665;BME280;49820;33.966;73.390;2023-02-27T11:35:29;79148.72;;;15.42;31.80
63665;BME280;49820;33.966;73.390;2023-02-27T11:38:02;79172.28;;;15.20;33.74
63665;BME280;49820;33.966;73.390;2023-02-27T11:40:37;79166.59;;;14.87;37.21
63665;BME280;49820;33.966;73.390;2023-02-27T11:43:19;79161.63;;;14.27;36.53
63665;BME280;49820;33.966;73.390;2023-02-27T11:46:04;79162.19;;;14.77;35.54
63665;BME280;49820;33.966;73.390;2023-02-27T11:49:43;79165.78;;;14.24;40.58
63665;BME280;49820;33.966;73.390;2023-02-27T11:51:58;79149.19;;;13.93;40.82
63665;BME280;49820;33.966;73.390;2023-02-27T11:54:51;79123.25;;;13.09;39.65
63665;BME280;49820;33.966;73.390;2023-02-27T12:00:24;79160.13;;;12.81;42.08
63665;BME280;49820;33.966;73.390;2023-02-27T12:03:08;79148.22;;;12.47;38.59
63665;BME280;49820;33.966;73.390;2023-02-27T12:05:48;79153.66;;;12.14;40.91
63665;BME280;49820;33.966;73.390;2023-02-27T12:14:24;79168.09;;;11.31;44.47
63665;BME280;49820;33.966;73.390;2023-02-27T12:17:01;79155.50;;;11.25;46.79
63665;BME280;49820;33.966;73.390;2023-02-27T12:20:05;79148.66;;;10.99;46.59
63665;BME280;49820;33.966;73.390;2023-02-27T12:22:36;79159.91;;;10.67;48.43
63665;BME280;49820;33.966;73.390;2023-02-27T12:25:34;79170.91;;;10.49;48.52
63665;BME280;49820;33.966;73.390;2023-02-27T12:29:08;79179.75;;;10.39;48.74
63665;BME280;49820;33.966;73.390;2023-02-27T12:34:26;79190.78;;;9.72;49.88
63665;BME280;49820;33.966;73.390;2023-02-27T12:37:12;79177.50;;;9.66;48.96
63665;BME280;49820;33.966;73.390;2023-02-27T12:39:43;79181.81;;;9.42;49.81
63665;BME280;49820;33.966;73.390;2023-02-27T12:42:37;79196.00;;;9.29;51.07
63665;BME280;49820;33.966;73.390;2023-02-27T12:56:27;79183.44;;;8.64;53.70
63665;BME280;49820;33.966;73.390;2023-02-27T12:59:37;79205.44;;;8.62;54.80
63665;BME280;49820;33.966;73.390;2023-02-27T13:11:42;79192.66;;;8.03;58.58
63665;BME280;49820;33.966;73.390;2023-02-27T13:14:37;79190.03;;;8.01;59.58
63665;BME280;49820;33.966;73.390;2023-02-27T13:22:51;79202.13;;;7.86;62.15
63665;BME280;49820;33.966;73.390;2023-02-27T13:25:25;79198.16;;;7.81;62.64
63665;BME280;49820;33.966;73.390;2023-02-27T13:28:01;79181.72;;;7.56;63.12
63665;BME280;49820;33.966;73.390;2023-02-27T13:30:39;79199.00;;;7.61;62.87
63665;BME280;49820;33.966;73.390;2023-02-27T13:33:28;79189.09;;;7.54;63.40
63665;BME280;49820;33.966;73.390;2023-02-27T13:38:57;79183.84;;;7.40;62.40
63665;BME280;49820;33.966;73.390;2023-02-27T13:43:58;79188.50;;;7.41;62.87
63665;BME280;49820;33.966;73.390;2023-02-27T13:46:30;79219.00;;;7.52;63.87
63665;BME280;49820;33.966;73.390;2023-02-27T13:51:53;79225.78;;;7.27;65.81
63665;BME280;49820;33.966;73.390;2023-02-27T13:54:32;79209.91;;;7.19;65.93
63665;BME280;49820;33.966;73.390;2023-02-27T13:59:40;79207.38;;;6.97;67.26
63665;BME280;49820;33.966;73.390;2023-02-27T14:04:53;79194.88;;;6.73;68.62
63665;BME280;49820;33.966;73.390;2023-02-27T14:07:25;79210.81;;;6.67;69.21
63665;BME280;49820;33.966;73.390;2023-02-27T14:10:03;79180.41;;;6.35;69.88
63665;BME280;49820;33.966;73.390;2023-02-27T14:12:36;79234.66;;;6.77;70.05
63665;BME280;49820;33.966;73.390;2023-02-27T14:17:55;79232.72;;;6.65;70.99
63665;BME280;49820;33.966;73.390;2023-02-27T14:23:23;79240.72;;;6.63;70.95
63665;BME280;49820;33.966;73.390;2023-02-27T14:26:17;79224.81;;;6.53;70.71
63665;BME280;49820;33.966;73.390;2023-02-27T14:28:55;79216.81;;;6.57;71.09
63665;BME280;49820;33.966;73.390;2023-02-27T14:31:29;79239.31;;;6.78;70.81
63665;BME280;49820;33.966;73.390;2023-02-27T14:34:01;79236.66;;;6.76;70.57
63665;BME280;49820;33.966;73.390;2023-02-27T14:36:46;79247.31;;;6.68;70.62
63665;BME280;49820;33.966;73.390;2023-02-27T14:44:53;79232.09;;;6.57;71.56
63665;BME280;49820;33.966;73.390;2023-02-27T14:47:35;79259.94;;;6.68;72.23
63665;BME280;49820;33.966;73.390;2023-02-27T14:50:19;79267.19;;;6.73;72.62
63665;BME280;49820;33.966;73.390;2023-02-27T14:52:48;79240.03;;;6.59;73.32
63665;BME280;49820;33.966;73.390;2023-02-27T14:55:25;79263.22;;;6.80;74.17
63665;BME280;49820;33.966;73.390;2023-02-27T14:58:00;79264.53;;;6.75;74.38
63665;BME280;49820;33.966;73.390;2023-02-27T15:03:36;79269.84;;;6.79;74.02
63665;BME280;49820;33.966;73.390;2023-02-27T15:06:23;79217.56;;;6.39;71.79
63665;BME280;49820;33.966;73.390;2023-02-27T15:08:54;79267.19;;;6.79;66.21
63665;BME280;49820;33.966;73.390;2023-02-27T15:11:25;79266.53;;;6.77;69.49
63665;BME280;49820;33.966;73.390;2023-02-27T15:14:05;79198.38;;;6.21;40.65
63665;BME280;49820;33.966;73.390;2023-02-27T15:16:37;79261.31;;;6.55;33.73
63665;BME280;49820;33.966;73.390;2023-02-27T15:19:16;79277.19;;;6.67;29.34
63665;BME280;49820;33.966;73.390;2023-02-27T15:21:58;79271.91;;;6.50;30.49
63665;BME280;49820;33.966;73.390;2023-02-27T15:24:34;79272.59;;;6.43;27.44
63665;BME280;49820;33.966;73.390;2023-02-27T15:27:21;79266.72;;;6.12;29.84
63665;BME280;49820;33.966;73.390;2023-02-27T15:29:56;79266.69;;;6.10;36.72
63665;BME280;49820;33.966;73.390;2023-02-27T15:32:40;79254.78;;;5.81;41.21
63665;BME280;49820;33.966;73.390;2023-02-27T15:35:23;79262.06;;;5.62;42.51
63665;BME280;49820;33.966;73.390;2023-02-27T15:37:57;79263.41;;;5.41;42.21
63665;BME280;49820;33.966;73.390;2023-02-27T15:40:30;79271.34;;;5.41;44.29
63665;BME280;49820;33.966;73.390;2023-02-27T15:43:01;79252.78;;;5.06;45.32
63665;BME280;49820;33.966;73.390;2023-02-27T15:45:32;79228.25;;;4.87;47.54
63665;BME280;49820;33.966;73.390;2023-02-27T15:48:03;79258.06;;;5.00;47.84
63665;BME280;49820;33.966;73.390;2023-02-27T15:50:36;79279.25;;;5.08;50.29
63665;BME280;49820;33.966;73.390;2023-02-27T15:53:17;79275.94;;;5.04;50.84
63665;BME280;49820;33.966;73.390;2023-02-27T15:55:50;79287.19;;;5.04;53.03
63665;BME280;49820;33.966;73.390;2023-02-27T16:01:14;79281.88;;;4.92;55.77
63665;BME280;49820;33.966;73.390;2023-02-27T16:03:51;79283.84;;;4.87;57.73
63665;BME280;49820;33.966;73.390;2023-02-27T16:06:33;79291.81;;;4.93;58.33
63665;BME280;49820;33.966;73.390;2023-02-27T16:09:24;79271.22;;;4.74;59.91
63665;BME280;49820;33.966;73.390;2023-02-27T16:20:46;79283.88;;;5.12;57.96
63665;BME280;49820;33.966;73.390;2023-02-27T16:23:25;79287.22;;;5.20;59.48
63665;BME280;49820;33.966;73.390;2023-02-27T16:26:05;79286.56;;;5.18;60.49
63665;BME280;49820;33.966;73.390;2023-02-27T16:28:48;79280.59;;;5.15;61.46
63665;BME280;49820;33.966;73.390;2023-02-27T16:31:33;79284.56;;;5.12;62.75
63665;BME280;49820;33.966;73.390;2023-02-27T16:34:31;79279.25;;;5.00;63.40
63665;BME280;49820;33.966;73.390;2023-02-27T16:37:28;79287.84;;;5.01;64.35
63665;BME280;49820;33.966;73.390;2023-02-27T16:39:59;79266.63;;;4.78;64.80
63665;BME280;49820;33.966;73.390;2023-02-27T16:42:28;79269.91;;;4.73;65.81
63665;BME280;49820;33.966;73.390;2023-02-27T16:44:57;79266.59;;;4.70;65.59
63665;BME280;49820;33.966;73.390;2023-02-27T16:47:27;79269.25;;;4.70;68.26
63665;BME280;49820;33.966;73.390;2023-02-27T16:49:56;79271.88;;;4.72;68.87
63665;BME280;49820;33.966;73.390;2023-02-27T16:52:26;79261.97;;;4.69;71.06
63665;BME280;49820;33.966;73.390;2023-02-27T16:54:54;79263.94;;;4.68;72.74
63665;BME280;49820;33.966;73.390;2023-02-27T16:57:24;79256.00;;;4.72;74.23
63665;BME280;49820;33.966;73.390;2023-02-27T16:59:55;79267.25;;;4.69;74.35
63665;BME280;49820;33.966;73.390;2023-02-27T17:02:26;79264.56;;;4.58;76.58
63665;BME280;49820;33.966;73.390;2023-02-27T17:04:55;79257.94;;;4.57;77.28
63665;BME280;49820;33.966;73.390;2023-02-27T17:07:24;79258.63;;;4.62;76.48
63665;BME280;49820;33.966;73.390;2023-02-27T17:09:53;79272.53;;;4.60;78.33
63665;BME280;49820;33.966;73.390;2023-02-27T17:12:22;79249.31;;;4.45;79.21
63665;BME280;49820;33.966;73.390;2023-02-27T17:14:51;79284.44;;;4.62;76.94
63665;BME280;49820;33.966;73.390;2023-02-27T17:17:21;79247.94;;;4.28;79.22
63665;BME280;49820;33.966;73.390;2023-02-27T17:19:50;79262.50;;;4.39;79.28
63665;BME280;49820;33.966;73.390;2023-02-27T17:22:19;79255.84;;;4.26;81.71
63665;BME280;49820;33.966;73.390;2023-02-27T17:24:48;79277.75;;;4.42;81.91
63665;BME280;49820;33.966;73.390;2023-02-27T17:27:17;79251.94;;;4.39;82.22
63665;BME280;49820;33.966;73.390;2023-02-27T17:29:46;79268.59;;;4.76;81.27
63665;BME280;49820;33.966;73.390;2023-02-27T17:32:16;79224.81;;;4.36;82.47
63665;BME280;49820;33.966;73.390;2023-02-27T17:34:44;79236.13;;;4.63;81.66
63665;BME280;49820;33.966;73.390;2023-02-27T17:37:14;79260.66;;;4.82;82.14
63665;BME280;49820;33.966;73.390;2023-02-27T17:39:43;79259.34;;;4.77;83.02
63665;BME280;49820;33.966;73.390;2023-02-27T17:42:12;79273.28;;;4.93;82.83
63665;BME280;49820;33.966;73.390;2023-02-27T17:44:45;79267.31;;;4.91;83.75
63665;BME280;49820;33.966;73.390;2023-02-27T17:47:14;79257.38;;;4.91;83.18
63665;BME280;49820;33.966;73.390;2023-02-27T17:49:44;79265.31;;;4.85;83.32
63665;BME280;49820;33.966;73.390;2023-02-27T17:52:13;79257.34;;;4.79;83.19
63665;BME280;49820;33.966;73.390;2023-02-27T17:54:42;79269.94;;;4.83;84.34
63665;BME280;49820;33.966;73.390;2023-02-27T17:57:11;79262.63;;;4.75;83.65
63665;BME280;49820;33.966;73.390;2023-02-27T17:59:42;79260.00;;;4.79;82.48
63665;BME280;49820;33.966;73.390;2023-02-27T18:02:14;79251.38;;;4.75;83.49
63665;BME280;49820;33.966;73.390;2023-02-27T18:04:43;79244.13;;;4.85;82.78
63665;BME280;49820;33.966;73.390;2023-02-27T18:07:12;79258.75;;;5.21;82.64
63665;BME280;49820;33.966;73.390;2023-02-27T18:09:41;79255.44;;;5.30;82.12
63665;BME280;49820;33.966;73.390;2023-02-27T18:12:13;79235.56;;;5.15;81.99
63665;BME280;49820;33.966;73.390;2023-02-27T18:14:42;79250.16;;;5.24;83.24
63665;BME280;49820;33.966;73.390;2023-02-27T18:17:11;79234.22;;;5.04;84.15
63665;BME280;49820;33.966;73.390;2023-02-27T18:19:41;79223.63;;;5.04;83.97
63665;BME280;49820;33.966;73.390;2023-02-27T18:22:11;79233.56;;;5.12;84.28
63665;BME280;49820;33.966;73.390;2023-02-27T18:24:43;79237.53;;;5.07;83.40
63665;BME280;49820;33.966;73.390;2023-02-27T18:27:12;79201.78;;;4.87;83.63
63665;BME280;49820;33.966;73.390;2023-02-27T18:29:41;79210.41;;;5.02;81.99
63665;BME280;49820;33.966;73.390;2023-02-27T18:32:11;79236.91;;;5.30;80.55
63665;BME280;49820;33.966;73.390;2023-02-27T18:34:41;79248.16;;;5.47;81.99
63665;BME280;49820;33.966;73.390;2023-02-27T18:37:11;79228.97;;;5.24;81.17
63665;BME280;49820;33.966;73.390;2023-02-27T18:39:40;79250.81;;;5.49;80.61
63665;BME280;49820;33.966;73.390;2023-02-27T18:42:10;79229.63;;;5.31;80.13
63665;BME280;49820;33.966;73.390;2023-02-27T18:44:39;79242.84;;;5.29;81.41
63665;BME280;49820;33.966;73.390;2023-02-27T18:47:08;79217.69;;;5.08;82.92
63665;BME280;49820;33.966;73.390;2023-02-27T18:49:39;79234.25;;;5.10;85.09